createdAt,value
2018-06-03T00:01:31.859Z,6.3
2018-06-03T00:07:26.895Z,6.37
2018-06-03T00:13:21.852Z,6.49
2018-06-03T00:19:16.865Z,6.65
2018-06-03T00:25:11.861Z,6.87
2018-06-03T00:31:06.870Z,7
2018-06-03T00:37:01.881Z,7.18
2018-06-03T00:42:56.857Z,7.06
2018-06-03T00:48:51.903Z,7.23
2018-06-03T00:54:46.898Z,6.56
2018-06-03T01:00:41.925Z,5.92
2018-06-03T01:06:36.950Z,5.94
2018-06-03T01:12:31.868Z,6.75
2018-06-03T01:18:26.900Z,6.65
2018-06-03T01:24:21.872Z,6.82
2018-06-03T01:30:16.868Z,6.69
2018-06-03T01:36:11.910Z,6.6
2018-06-03T01:42:06.928Z,7.18
2018-06-03T01:48:01.961Z,7.64
2018-06-03T01:53:56.906Z,7.74
2018-06-03T01:59:51.915Z,6.42
2018-06-03T02:05:46.916Z,6.36
2018-06-03T02:11:41.934Z,7.54
2018-06-03T02:17:36.940Z,7.85
2018-06-03T02:23:31.940Z,7.85
2018-06-03T02:29:26.925Z,6.73
2018-06-03T02:35:21.965Z,7.15
2018-06-03T02:41:17.000Z,7.42
2018-06-03T02:47:11.965Z,7.36
2018-06-03T02:53:06.981Z,7.13
2018-06-03T02:59:01.951Z,7.56
2018-06-03T03:04:56.966Z,7.54
2018-06-03T03:10:51.945Z,6.62
2018-06-03T03:16:46.950Z,5.67
2018-06-03T03:22:41.988Z,6.26
2018-06-03T03:28:36.992Z,6.19
2018-06-03T03:34:31.953Z,6.35
2018-06-03T03:40:26.971Z,6.22
2018-06-03T03:46:21.991Z,5.81
2018-06-03T03:52:16.991Z,6.3
2018-06-03T03:58:11.967Z,7.29
2018-06-03T04:04:07.010Z,6.97
2018-06-03T04:10:01.988Z,6.83
2018-06-03T04:15:56.988Z,6.62
2018-06-03T04:21:51.999Z,6.84
2018-06-03T04:27:46.991Z,5.93
2018-06-03T04:33:41.998Z,6.97
2018-06-03T04:39:37.014Z,6.8
2018-06-03T04:45:32.016Z,7.62
2018-06-03T04:51:26.989Z,9.18
2018-06-03T04:57:21.978Z,17.96
2018-06-03T05:03:17.035Z,18.24
2018-06-03T05:09:12.019Z,12.56
2018-06-03T05:15:07.075Z,8.97
2018-06-03T05:21:02.086Z,7.58
2018-06-03T05:26:57.054Z,7.86
2018-06-03T05:32:52.017Z,6.93
2018-06-03T05:38:47.012Z,7.15
2018-06-03T05:44:42.015Z,7.63
2018-06-03T05:50:37.052Z,7.83
2018-06-03T05:56:32.020Z,7.03
2018-06-03T06:02:27.056Z,6.33
2018-06-03T06:08:22.047Z,5.96
2018-06-03T06:14:17.057Z,5.68
2018-06-03T06:20:12.144Z,5.48
2018-06-03T06:26:07.060Z,5.71
2018-06-03T06:32:02.064Z,5.83
2018-06-03T06:37:57.064Z,7.22
2018-06-03T06:43:52.034Z,8.3
2018-06-03T06:49:47.095Z,9.01
2018-06-03T06:55:42.058Z,9.37
2018-06-03T07:01:37.096Z,9.4
2018-06-03T07:07:32.097Z,8.72
2018-06-03T07:13:27.156Z,8.03
2018-06-03T07:19:22.080Z,7.83
2018-06-03T07:25:17.094Z,7.5
2018-06-03T07:31:12.122Z,5.56
2018-06-03T07:37:07.115Z,6.01
2018-06-03T07:43:02.083Z,5.61
2018-06-03T07:48:57.149Z,4.39
2018-06-03T07:54:52.127Z,3.24
2018-06-03T08:00:47.176Z,3.17
2018-06-03T08:06:42.137Z,3.5
2018-06-03T08:12:37.088Z,3.12
2018-06-03T08:18:32.123Z,3.57
2018-06-03T08:24:27.165Z,3.42
2018-06-03T08:30:22.091Z,3.35
2018-06-03T08:36:17.111Z,4.03
2018-06-03T08:42:12.144Z,2.96
2018-06-03T08:48:07.112Z,2.81
2018-06-03T08:54:02.164Z,2.69
2018-06-03T08:59:57.117Z,2.61
2018-06-03T09:05:52.173Z,2.53
2018-06-03T09:11:47.150Z,2.14
2018-06-03T09:17:42.192Z,2.12
2018-06-03T09:23:37.176Z,2.47
2018-06-03T09:29:32.140Z,2.23
2018-06-03T09:35:27.180Z,2.61
2018-06-03T09:41:22.202Z,2.32
2018-06-03T09:47:17.196Z,2.44
2018-06-03T09:53:12.296Z,2.49
2018-06-03T09:59:07.155Z,1.99
2018-06-03T10:05:02.232Z,2.72
2018-06-03T10:10:57.192Z,2.31
2018-06-03T10:16:52.177Z,1.94
2018-06-03T10:22:47.237Z,2.14
2018-06-03T10:28:42.240Z,2.21
2018-06-03T10:34:37.193Z,4.63
2018-06-03T10:40:32.201Z,2.39
2018-06-03T10:46:27.188Z,1.7
2018-06-03T10:52:22.216Z,1.98
2018-06-03T10:58:17.228Z,1.1
2018-06-03T11:04:12.209Z,1.26
2018-06-03T11:10:07.256Z,1.43
2018-06-03T11:16:02.233Z,1.24
2018-06-03T11:21:57.198Z,1.3
2018-06-03T11:27:52.261Z,1.38
2018-06-03T11:33:47.230Z,1.39
2018-06-03T11:39:42.228Z,1.48
2018-06-03T11:45:37.309Z,1.18
2018-06-03T11:51:32.226Z,1.24
2018-06-03T11:57:27.253Z,1.27
2018-06-03T12:03:22.243Z,1.21
2018-06-03T12:09:17.249Z,1.38
2018-06-03T12:15:12.228Z,1.21
2018-06-03T12:21:07.330Z,1.44
2018-06-03T12:27:02.257Z,1.17
2018-06-03T12:32:57.302Z,1.33
2018-06-03T12:38:52.325Z,1.25
2018-06-03T12:44:47.316Z,1.13
2018-06-03T12:50:42.298Z,1.13
2018-06-03T12:56:37.241Z,1.19
2018-06-03T13:02:32.331Z,1.36
2018-06-03T13:08:27.263Z,2.06
2018-06-03T13:14:22.262Z,1.92
2018-06-03T13:20:17.275Z,1.13
2018-06-03T13:26:12.310Z,1.32
2018-06-03T13:32:07.262Z,1.48
2018-06-03T13:38:02.295Z,1.53
2018-06-03T13:43:57.328Z,1.33
2018-06-03T13:49:52.289Z,1.27
2018-06-03T13:55:47.289Z,1.21
2018-06-03T14:01:42.346Z,1.34
2018-06-03T14:07:37.330Z,1.83
2018-06-03T14:13:32.313Z,1.36
2018-06-03T14:19:27.355Z,1.18
2018-06-03T14:25:22.375Z,1.56
2018-06-03T14:31:17.351Z,1.6
2018-06-03T14:37:12.332Z,1.57
2018-06-03T14:43:12.333Z,1.56
2018-06-03T14:49:02.338Z,2.28
2018-06-03T14:54:57.360Z,1.76
2018-06-03T15:00:52.280Z,1.96
2018-06-03T15:06:47.287Z,1.88
2018-06-03T15:12:42.291Z,1.75
2018-06-03T15:18:37.316Z,1.97
2018-06-03T15:24:32.347Z,2.26
2018-06-03T15:30:27.338Z,1.88
2018-06-03T15:36:22.341Z,2.11
2018-06-03T15:42:17.347Z,2.38
2018-06-03T15:48:12.432Z,2.32
2018-06-03T15:54:07.355Z,2.35
2018-06-03T16:00:02.388Z,2.15
2018-06-03T16:05:57.442Z,1.79
2018-06-03T16:11:52.498Z,2.09
2018-06-03T16:17:47.385Z,2.27
2018-06-03T16:23:42.442Z,2.17
2018-06-03T16:29:37.424Z,2.19
2018-06-03T16:35:32.413Z,2.73
2018-06-03T16:41:27.406Z,2.21
2018-06-03T16:47:22.434Z,2.38
2018-06-03T16:53:17.420Z,2.52
2018-06-03T16:59:12.515Z,2.5
2018-06-03T17:05:07.399Z,2.09
2018-06-03T17:11:02.409Z,2.38
2018-06-03T17:16:57.445Z,2.42
2018-06-03T17:22:52.493Z,2.54
2018-06-03T17:28:47.420Z,2.69
2018-06-03T17:34:42.480Z,2.3
2018-06-03T17:40:37.445Z,3.13
2018-06-03T17:46:32.430Z,2.7
2018-06-03T17:52:27.478Z,2.66
2018-06-03T17:58:22.435Z,3.1
2018-06-03T18:04:17.461Z,2.44
2018-06-03T18:10:12.454Z,3.1
2018-06-03T18:16:07.441Z,2.84
2018-06-03T18:22:02.533Z,3.26
2018-06-03T18:27:57.488Z,3.8
2018-06-03T18:33:52.492Z,2.74
2018-06-03T18:39:47.487Z,2.69
2018-06-03T18:45:42.518Z,2.72
2018-06-03T18:51:37.463Z,2.91
2018-06-03T18:57:32.516Z,2.6
2018-06-03T19:03:27.477Z,2.35
2018-06-03T19:09:22.594Z,2.6
2018-06-03T19:15:17.533Z,3.09
2018-06-03T19:21:12.513Z,3.16
2018-06-03T19:27:07.509Z,2.88
2018-06-03T19:33:02.538Z,2.98
2018-06-03T19:38:57.536Z,3.11
2018-06-03T19:44:52.600Z,2.94
2018-06-03T19:50:47.543Z,3.13
2018-06-03T19:56:42.525Z,2.59
2018-06-03T20:02:37.507Z,3.47
2018-06-03T20:08:32.496Z,2.76
2018-06-03T20:14:27.508Z,3.16
2018-06-03T20:20:22.592Z,3.56
2018-06-03T20:26:17.568Z,4.06
2018-06-03T20:32:12.550Z,4.2
2018-06-03T20:38:07.548Z,4.13
2018-06-03T20:44:02.558Z,4.52
2018-06-03T20:49:57.583Z,4.52
2018-06-03T20:55:52.582Z,3.92
2018-06-03T21:01:47.553Z,4.24
2018-06-03T21:07:42.546Z,4.06
2018-06-03T21:13:37.580Z,4.16
2018-06-03T21:19:32.542Z,4.23
2018-06-03T21:25:27.566Z,4.03
2018-06-03T21:31:22.569Z,3.73
2018-06-03T21:37:17.613Z,4.44
2018-06-03T21:43:12.582Z,5.15
2018-06-03T21:49:07.560Z,4.75
2018-06-03T21:55:02.555Z,4.18
2018-06-03T22:00:57.603Z,4.25
2018-06-03T22:06:52.658Z,4.83
2018-06-03T22:12:47.594Z,3.97
2018-06-03T22:18:42.646Z,4.06
2018-06-03T22:24:37.573Z,3.62
2018-06-03T22:30:32.642Z,4.12
2018-06-03T22:36:27.604Z,3.96
2018-06-03T22:42:22.639Z,3.97
2018-06-03T22:48:17.647Z,4.97
2018-06-03T22:54:12.720Z,4.58
2018-06-03T23:00:07.672Z,5.05
2018-06-03T23:06:02.647Z,6.64
2018-06-03T23:11:57.643Z,5.76
2018-06-03T23:17:52.662Z,5.68
2018-06-03T23:23:47.639Z,5.91
2018-06-03T23:29:42.669Z,6.82
2018-06-03T23:35:37.680Z,7.01
2018-06-03T23:41:32.772Z,6.26
2018-06-03T23:47:27.665Z,5.04
2018-06-03T23:53:22.670Z,5.44
2018-06-03T23:59:17.715Z,5.4
